TimeAKST,TemperatureF,Dew PointF,Humidity,Sea Level PressureIn,VisibilityMPH,Wind Direction,Wind SpeedMPH,Gust SpeedMPH,PrecipitationIn,Events,Conditions,WindDirDegrees,DateUTC
12:53 AM,-9.9,-16.1,74,28.92,10.0,East,4.6,-,N/A,,Clear,80,2012-01-21 09:53:00
1:53 AM,-11.9,-18.9,71,28.88,10.0,East,3.5,-,N/A,,Clear,90,2012-01-21 10:53:00
4:53 AM,-11.9,-18.0,74,28.78,10.0,Calm,Calm,-,N/A,,Clear,0,2012-01-21 13:53:00
5:53 AM,-11.0,-16.1,78,28.74,10.0,Calm,Calm,-,N/A,,Clear,0,2012-01-21 14:53:00
6:53 AM,-14.1,-18.9,79,28.72,10.0,Calm,Calm,-,N/A,,Clear,0,2012-01-21 15:53:00
7:53 AM,-15.0,-20.9,75,28.70,10.0,Calm,Calm,-,N/A,,Clear,0,2012-01-21 16:53:00
8:53 AM,-14.1,-20.0,75,28.69,10.0,Calm,Calm,-,N/A,,Clear,0,2012-01-21 17:53:00
9:53 AM,-13.0,-18.9,75,28.68,10.0,East,5.8,-,N/A,,Clear,90,2012-01-21 18:53:00
10:53 AM,-11.0,-16.1,78,28.67,10.0,Calm,Calm,-,N/A,,Clear,0,2012-01-21 19:53:00
11:53 AM,-8.0,-14.1,75,28.67,10.0,East,4.6,-,N/A,,Clear,80,2012-01-21 20:53:00
12:53 PM,-2.9,-9.0,75,28.67,10.0,East,3.5,-,N/A,,Clear,80,2012-01-21 21:53:00
1:53 PM,1.9,-4.0,76,28.67,10.0,Calm,Calm,-,N/A,,Clear,0,2012-01-21 22:53:00
2:53 PM,1.9,-2.9,80,28.66,10.0,NNE,3.5,-,N/A,,Clear,30,2012-01-21 23:53:00
3:53 PM,1.9,-2.9,80,28.66,10.0,Calm,Calm,-,N/A,,Mostly Cloudy,0,2012-01-22 00:53:00
4:53 PM,3.9,-0.0,84,28.65,10.0,Calm,Calm,-,N/A,,Mostly Cloudy,0,2012-01-22 01:53:00
5:53 PM,5.0,1.0,84,28.64,10.0,Calm,Calm,-,N/A,,Mostly Cloudy,0,2012-01-22 02:53:00
6:53 PM,3.0,-0.9,84,28.64,10.0,Calm,Calm,-,N/A,,Overcast,0,2012-01-22 03:53:00
7:53 PM,6.1,1.0,80,28.64,10.0,NNE,3.5,-,N/A,,Overcast,20,2012-01-22 04:53:00
8:53 PM,7.0,1.0,77,28.63,10.0,North,5.8,-,N/A,,Overcast,10,2012-01-22 05:53:00
9:53 PM,10.0,1.0,67,28.63,10.0,NNE,10.4,16.1,N/A,,Overcast,30,2012-01-22 06:53:00
10:53 PM,12.0,1.0,61,28.64,10.0,North,10.4,-,N/A,,Overcast,360,2012-01-22 07:53:00
11:53 PM,10.0,1.0,67,28.64,10.0,North,12.7,-,N/A,,Overcast,350,2012-01-22 08:53:00